createdAt,value
2023-02-16T00:01:23.273Z,47.50
2023-02-16T00:03:57.048Z,49.60
2023-02-16T00:06:32.248Z,45.03
2023-02-16T00:09:05.064Z,45.43
2023-02-16T00:11:55.783Z,45.27
2023-02-16T00:14:29.001Z,53.03
2023-02-16T00:17:02.202Z,48.50
2023-02-16T00:19:38.710Z,47.40
2023-02-16T00:22:12.768Z,48.57
2023-02-16T00:24:45.619Z,45.30
2023-02-16T00:27:21.959Z,44.50
2023-02-16T00:29:54.781Z,49.40
2023-02-16T00:32:27.727Z,46.50
2023-02-16T00:35:01.165Z,50.37
2023-02-16T00:37:37.567Z,44.37
2023-02-16T00:40:10.809Z,46.83
2023-02-16T00:42:43.990Z,45.47
2023-02-16T00:45:19.953Z,46.77
2023-02-16T00:47:53.597Z,43.57
2023-02-16T00:50:29.062Z,48.10
2023-02-16T00:53:04.988Z,43.03
2023-02-16T00:55:37.881Z,43.73
2023-02-16T00:58:17.206Z,46.80
2023-02-16T01:00:51.296Z,39.87
2023-02-16T01:03:26.190Z,41.10
2023-02-16T01:06:12.870Z,46.07
2023-02-16T01:09:04.393Z,40.07
2023-02-16T01:11:37.208Z,44.13
2023-02-16T01:14:11.349Z,41.70
2023-02-16T01:16:44.250Z,39.53
2023-02-16T01:19:17.138Z,41.00
2023-02-16T01:21:49.949Z,44.17
2023-02-16T01:24:24.883Z,37.63
2023-02-16T01:26:57.852Z,43.20
2023-02-16T01:29:32.992Z,42.63
2023-02-16T01:32:05.905Z,40.30
2023-02-16T01:34:38.848Z,40.27
2023-02-16T01:37:15.162Z,44.20
2023-02-16T01:39:49.510Z,40.53
2023-02-16T01:42:30.790Z,41.50
2023-02-16T01:45:05.587Z,42.20
2023-02-16T01:47:39.478Z,40.17
2023-02-16T01:50:15.899Z,39.17
2023-02-16T01:52:51.617Z,39.20
2023-02-16T01:55:26.967Z,38.90
2023-02-16T01:58:01.691Z,43.07
2023-02-16T02:00:49.383Z,42.67
2023-02-16T02:03:41.116Z,41.70
2023-02-16T02:06:28.773Z,39.23
2023-02-16T02:09:03.225Z,37.83
2023-02-16T02:11:38.339Z,37.47
2023-02-16T02:14:14.053Z,37.97
2023-02-16T02:16:53.922Z,43.90
2023-02-16T02:19:26.776Z,35.63
2023-02-16T02:22:30.845Z,34.47
2023-02-16T02:25:21.494Z,34.67
2023-02-16T02:28:01.141Z,34.07
2023-02-16T02:30:42.728Z,32.30
2023-02-16T02:33:26.834Z,34.00
2023-02-16T02:36:07.645Z,33.40
2023-02-16T02:38:43.940Z,30.10
2023-02-16T02:41:20.206Z,33.27
2023-02-16T02:43:58.304Z,33.03
2023-02-16T02:46:35.150Z,32.90
2023-02-16T02:49:10.506Z,32.03
2023-02-16T02:51:43.742Z,32.40
2023-02-16T02:54:35.615Z,37.60
2023-02-16T02:57:27.286Z,32.50
2023-02-16T03:00:27.484Z,35.00
2023-02-16T03:03:03.887Z,31.37
2023-02-16T03:05:37.361Z,29.57
2023-02-16T03:08:16.363Z,30.70
2023-02-16T03:11:07.983Z,35.57
2023-02-16T03:13:43.094Z,33.10
2023-02-16T03:16:19.954Z,31.90
2023-02-16T03:19:10.684Z,30.57
2023-02-16T03:22:01.309Z,31.10
2023-02-16T03:24:54.227Z,34.57
2023-02-16T03:27:47.636Z,32.27
2023-02-16T03:30:21.398Z,32.30
2023-02-16T03:32:55.876Z,32.27
2023-02-16T03:35:29.684Z,29.13
2023-02-16T03:38:02.666Z,31.67
2023-02-16T03:40:36.510Z,30.33
2023-02-16T03:43:09.749Z,30.90
2023-02-16T03:45:43.234Z,35.93
2023-02-16T03:48:17.481Z,32.53
2023-02-16T03:50:51.847Z,32.00
2023-02-16T03:53:24.658Z,33.70
2023-02-16T03:55:57.509Z,31.17
2023-02-16T03:58:30.372Z,31.20
2023-02-16T04:01:03.502Z,29.10
2023-02-16T04:03:37.905Z,30.43
2023-02-16T04:06:10.729Z,27.00
2023-02-16T04:08:43.600Z,32.77
2023-02-16T04:11:34.030Z,26.20
2023-02-16T04:14:09.695Z,28.23
2023-02-16T04:16:45.204Z,24.57
2023-02-16T04:19:19.494Z,26.03
2023-02-16T04:21:53.505Z,27.70
2023-02-16T04:24:26.249Z,25.47
2023-02-16T04:26:59.002Z,22.53
2023-02-16T04:29:32.142Z,23.63
2023-02-16T04:32:08.539Z,22.90
2023-02-16T04:34:42.738Z,23.37
2023-02-16T04:37:15.507Z,23.00
2023-02-16T04:39:48.352Z,22.53
2023-02-16T04:42:21.150Z,21.47
2023-02-16T04:44:54.346Z,23.10
2023-02-16T04:47:27.282Z,22.17
2023-02-16T04:50:01.668Z,22.37
2023-02-16T04:52:34.534Z,23.57
2023-02-16T04:55:12.808Z,22.67
2023-02-16T04:57:45.745Z,23.63
2023-02-16T05:00:18.940Z,22.03
2023-02-16T05:02:51.914Z,23.73
2023-02-16T05:05:26.044Z,23.30
2023-02-16T05:07:58.973Z,22.60
2023-02-16T05:10:34.682Z,27.40
2023-02-16T05:13:25.144Z,21.27
2023-02-16T05:15:59.280Z,23.33
2023-02-16T05:18:32.128Z,24.30
2023-02-16T05:21:27.090Z,24.80
2023-02-16T05:24:03.075Z,21.10
2023-02-16T05:26:36.289Z,24.63
2023-02-16T05:29:09.096Z,22.97
2023-02-16T05:31:42.041Z,21.17
2023-02-16T05:34:14.835Z,21.03
2023-02-16T05:36:48.956Z,23.53
2023-02-16T05:39:22.126Z,23.83
2023-02-16T05:41:57.386Z,22.73
2023-02-16T05:44:30.332Z,21.13
2023-02-16T05:47:03.033Z,25.77
2023-02-16T05:49:35.884Z,20.77
2023-02-16T05:52:13.087Z,25.10
2023-02-16T05:54:51.093Z,25.87
2023-02-16T05:57:23.849Z,22.87
2023-02-16T05:59:56.772Z,23.63
2023-02-16T06:02:32.037Z,25.03
2023-02-16T06:05:05.086Z,24.83
2023-02-16T06:07:39.176Z,24.80
2023-02-16T06:10:12.150Z,21.37
2023-02-16T06:12:46.723Z,23.97
2023-02-16T06:15:19.484Z,22.20
2023-02-16T06:17:52.224Z,21.80
2023-02-16T06:20:26.745Z,20.63
2023-02-16T06:23:04.190Z,23.77
2023-02-16T06:25:36.893Z,24.20
2023-02-16T06:28:09.749Z,20.07
2023-02-16T06:30:42.812Z,22.97
2023-02-16T06:33:15.936Z,26.83
2023-02-16T06:35:51.596Z,25.07
2023-02-16T06:38:28.437Z,22.67
2023-02-16T06:41:01.265Z,21.13
2023-02-16T06:43:34.312Z,21.93
2023-02-16T06:46:07.143Z,23.23
2023-02-16T06:48:39.789Z,21.90
2023-02-16T06:51:12.722Z,20.27
2023-02-16T06:53:47.162Z,22.73
2023-02-16T06:56:20.035Z,24.20
2023-02-16T06:58:55.405Z,24.03
2023-02-16T07:01:28.218Z,22.30
2023-02-16T07:04:01.385Z,26.20
2023-02-16T07:06:34.454Z,20.37
2023-02-16T07:09:12.816Z,23.13
2023-02-16T07:11:45.863Z,22.50
2023-02-16T07:14:18.627Z,22.93
2023-02-16T07:16:51.467Z,24.83
2023-02-16T07:19:24.301Z,25.00
2023-02-16T07:21:57.160Z,22.03
2023-02-16T07:24:31.277Z,23.80
2023-02-16T07:27:05.228Z,24.57
2023-02-16T07:29:37.859Z,22.77
2023-02-16T07:32:12.258Z,23.93
2023-02-16T07:34:45.727Z,27.50
2023-02-16T07:37:18.597Z,25.03
2023-02-16T07:39:54.278Z,22.57
2023-02-16T07:42:30.348Z,24.60
2023-02-16T07:45:03.660Z,26.90
2023-02-16T07:47:36.584Z,28.80
2023-02-16T07:50:09.640Z,24.97
2023-02-16T07:52:42.525Z,29.20
2023-02-16T07:55:16.605Z,23.13
2023-02-16T07:57:54.601Z,25.63
2023-02-16T08:00:28.634Z,29.17
2023-02-16T08:03:01.509Z,26.30
2023-02-16T08:05:35.212Z,28.93
2023-02-16T08:08:08.038Z,25.93
2023-02-16T08:10:42.058Z,23.73
2023-02-16T08:13:14.859Z,30.10
2023-02-16T08:15:47.728Z,26.70
2023-02-16T08:18:20.418Z,29.27
2023-02-16T08:21:03.775Z,26.50
2023-02-16T08:23:37.761Z,26.60
2023-02-16T08:26:17.069Z,26.33
2023-02-16T08:28:50.160Z,28.53
2023-02-16T08:31:24.696Z,29.30
2023-02-16T08:33:59.199Z,27.43
2023-02-16T08:36:34.408Z,24.53
2023-02-16T08:39:07.933Z,28.53
2023-02-16T08:41:42.127Z,27.30
2023-02-16T08:44:16.440Z,27.30
2023-02-16T08:46:50.101Z,28.10
2023-02-16T08:49:24.003Z,26.43
2023-02-16T08:51:58.663Z,30.17
2023-02-16T08:54:33.319Z,25.10
2023-02-16T08:57:07.791Z,29.47
2023-02-16T08:59:40.693Z,31.77
2023-02-16T09:02:13.319Z,28.67
2023-02-16T09:04:48.683Z,31.40
2023-02-16T09:07:22.268Z,29.57
2023-02-16T09:09:55.077Z,30.60
2023-02-16T09:12:30.058Z,25.53
2023-02-16T09:15:02.971Z,26.50
2023-02-16T09:17:36.056Z,26.87
2023-02-16T09:20:12.263Z,28.97
2023-02-16T09:22:47.109Z,28.33
2023-02-16T09:25:22.065Z,27.43
2023-02-16T09:27:56.864Z,26.37
2023-02-16T09:30:29.698Z,28.80
2023-02-16T09:33:03.047Z,30.83
2023-02-16T09:35:35.833Z,30.27
2023-02-16T09:38:08.812Z,33.93
2023-02-16T09:40:41.527Z,38.77
2023-02-16T09:43:20.657Z,29.30
2023-02-16T09:45:54.805Z,34.53
2023-02-16T09:48:32.298Z,28.00
2023-02-16T09:51:06.457Z,31.63
2023-02-16T09:53:40.513Z,29.37
2023-02-16T09:56:20.067Z,29.83
2023-02-16T09:58:57.332Z,28.97
2023-02-16T10:01:33.704Z,31.70
2023-02-16T10:04:12.339Z,27.83
2023-02-16T10:06:51.793Z,30.87
2023-02-16T10:09:26.984Z,29.83
2023-02-16T10:12:02.526Z,30.53
2023-02-16T10:14:41.306Z,31.97
2023-02-16T10:17:18.214Z,30.20
2023-02-16T10:19:54.604Z,26.70
2023-02-16T10:22:32.662Z,27.40
2023-02-16T10:25:09.699Z,31.57
2023-02-16T10:27:44.090Z,25.27
2023-02-16T10:30:19.117Z,30.77
2023-02-16T10:32:55.492Z,32.30
2023-02-16T10:35:33.027Z,31.40
2023-02-16T10:38:08.239Z,31.27
2023-02-16T10:40:51.910Z,30.63
2023-02-16T10:43:31.019Z,27.43
2023-02-16T10:46:09.433Z,30.83
2023-02-16T10:48:42.224Z,28.30
2023-02-16T10:51:17.348Z,27.77
2023-02-16T10:53:51.473Z,29.50
2023-02-16T10:56:28.429Z,32.87
2023-02-16T10:59:04.666Z,30.53
2023-02-16T11:01:39.961Z,35.97
2023-02-16T11:04:27.578Z,28.50
2023-02-16T11:07:05.317Z,31.97
2023-02-16T11:09:38.473Z,30.93
2023-02-16T11:12:19.479Z,32.53
2023-02-16T11:14:53.996Z,28.63
2023-02-16T11:17:28.465Z,31.73
2023-02-16T11:20:03.040Z,38.63
2023-02-16T11:22:36.959Z,31.50
2023-02-16T11:25:24.042Z,31.37
2023-02-16T11:27:58.203Z,36.87
2023-02-16T11:30:33.125Z,29.90
2023-02-16T11:33:20.202Z,30.83
2023-02-16T11:35:52.870Z,30.00
2023-02-16T11:38:29.919Z,31.07
2023-02-16T11:41:04.224Z,31.20
2023-02-16T11:43:38.862Z,30.17
2023-02-16T11:46:16.592Z,31.17
2023-02-16T11:48:51.153Z,31.20
2023-02-16T11:51:32.534Z,29.77
2023-02-16T11:54:07.662Z,30.73
2023-02-16T11:56:41.866Z,30.83
2023-02-16T11:59:19.139Z,30.80
2023-02-16T12:02:00.434Z,118.83
2023-02-16T12:04:42.502Z,30.77
2023-02-16T12:07:29.396Z,31.87
2023-02-16T12:10:04.709Z,31.33
2023-02-16T12:12:43.743Z,32.53
2023-02-16T12:15:22.214Z,30.90
2023-02-16T12:18:02.501Z,27.77
2023-02-16T12:20:42.813Z,30.87
2023-02-16T12:23:24.552Z,30.70
2023-02-16T12:26:05.611Z,27.90
2023-02-16T12:28:43.048Z,30.33
2023-02-16T12:31:22.585Z,28.60
2023-02-16T12:33:58.937Z,28.73
2023-02-16T12:36:42.974Z,28.60
2023-02-16T12:39:18.995Z,30.30
2023-02-16T12:41:59.961Z,28.07
2023-02-16T12:44:35.004Z,33.90
2023-02-16T12:47:13.613Z,27.50
2023-02-16T12:49:50.154Z,29.20
2023-02-16T12:52:29.553Z,30.10
2023-02-16T12:55:07.837Z,26.43
2023-02-16T12:57:45.505Z,26.23
2023-02-16T13:00:21.442Z,27.93
2023-02-16T13:02:56.835Z,28.87
2023-02-16T13:05:31.485Z,28.37
2023-02-16T13:08:09.346Z,33.07
2023-02-16T13:10:48.493Z,26.50
2023-02-16T13:13:22.665Z,27.23
2023-02-16T13:15:59.231Z,29.93
2023-02-16T13:18:32.711Z,26.70
2023-02-16T13:21:10.943Z,26.40
2023-02-16T13:23:48.685Z,28.27
2023-02-16T13:26:29.368Z,30.70
2023-02-16T13:29:29.337Z,28.17
2023-02-16T13:32:21.287Z,26.23
2023-02-16T13:35:10.469Z,33.17
2023-02-16T13:37:55.680Z,29.83
2023-02-16T13:40:37.560Z,27.47
2023-02-16T13:43:19.332Z,29.30
2023-02-16T13:45:54.130Z,26.97
2023-02-16T13:48:28.304Z,30.53
2023-02-16T13:51:03.814Z,25.20
2023-02-16T13:53:38.625Z,22.53
2023-02-16T13:56:21.927Z,23.83
2023-02-16T13:58:54.793Z,24.67
2023-02-16T14:01:39.011Z,31.60
2023-02-16T14:04:13.720Z,26.93
2023-02-16T14:06:46.961Z,25.97
2023-02-16T14:09:47.684Z,25.80
2023-02-16T14:12:25.907Z,23.60
2023-02-16T14:15:02.392Z,28.27
2023-02-16T14:17:35.836Z,24.73
2023-02-16T14:20:26.344Z,25.40
2023-02-16T14:23:00.679Z,41.73
2023-02-16T14:25:38.121Z,26.67
2023-02-16T14:28:29.305Z,27.63
2023-02-16T14:31:04.810Z,24.43
2023-02-16T14:33:41.185Z,26.20
2023-02-16T14:36:18.363Z,26.10
2023-02-16T14:38:54.256Z,24.60
2023-02-16T14:41:28.576Z,29.13
2023-02-16T14:44:21.786Z,23.17
2023-02-16T14:47:01.457Z,28.40
2023-02-16T14:49:57.338Z,24.37
2023-02-16T14:52:42.748Z,29.00
2023-02-16T14:55:24.197Z,27.43
2023-02-16T14:57:59.222Z,27.07
2023-02-16T15:00:35.682Z,25.47
2023-02-16T15:03:17.646Z,28.03
2023-02-16T15:05:53.468Z,24.73
2023-02-16T15:08:34.358Z,25.50
2023-02-16T15:11:14.918Z,23.20
2023-02-16T15:13:51.783Z,27.27
2023-02-16T15:16:27.437Z,26.43
2023-02-16T15:19:03.992Z,24.83
2023-02-16T15:21:36.743Z,23.80
2023-02-16T15:24:21.877Z,23.57
2023-02-16T15:26:56.281Z,25.13
2023-02-16T15:29:29.426Z,24.47
2023-02-16T15:32:02.294Z,24.30
2023-02-16T15:34:37.124Z,26.20
2023-02-16T15:37:22.003Z,21.67
2023-02-16T15:40:23.977Z,24.20
2023-02-16T15:42:50.449Z,26.53
2023-02-16T15:45:31.398Z,27.00
2023-02-16T15:48:18.393Z,25.17
2023-02-16T15:50:55.597Z,24.80
2023-02-16T15:53:39.487Z,24.23
2023-02-16T15:56:23.864Z,22.27
2023-02-16T15:59:00.125Z,26.00
2023-02-16T16:01:38.960Z,26.60
2023-02-16T16:04:17.694Z,23.13
2023-02-16T16:06:52.628Z,25.70
2023-02-16T16:09:29.704Z,21.73
2023-02-16T16:12:04.226Z,26.80
2023-02-16T16:14:39.661Z,25.07
2023-02-16T16:17:15.601Z,28.87
2023-02-16T16:19:48.542Z,28.00
2023-02-16T16:22:39.757Z,27.07
2023-02-16T16:25:32.674Z,27.00
2023-02-16T16:28:08.846Z,27.03
2023-02-16T16:30:45.136Z,27.27
2023-02-16T16:33:17.892Z,23.57
2023-02-16T16:35:51.508Z,25.60
2023-02-16T16:38:34.012Z,22.90
2023-02-16T16:41:25.083Z,27.03
2023-02-16T16:44:00.851Z,27.80
2023-02-16T16:46:35.218Z,24.00
2023-02-16T16:49:14.169Z,24.73
2023-02-16T16:51:52.196Z,21.17
2023-02-16T16:54:33.271Z,26.00
2023-02-16T16:57:13.550Z,26.63
2023-02-16T16:59:46.365Z,27.57
2023-02-16T17:02:19.228Z,25.43
2023-02-16T17:04:52.057Z,28.30
2023-02-16T17:07:24.756Z,25.57
2023-02-16T17:09:59.051Z,23.87
2023-02-16T17:12:31.794Z,25.67
2023-02-16T17:15:04.762Z,26.93
2023-02-16T17:17:38.395Z,26.97
2023-02-16T17:20:14.432Z,31.23
2023-02-16T17:22:47.150Z,28.43
2023-02-16T17:25:21.450Z,26.17
2023-02-16T17:27:54.238Z,31.97
2023-02-16T17:30:27.455Z,23.93
2023-02-16T17:33:00.546Z,26.53
2023-02-16T17:35:33.346Z,53.07
2023-02-16T17:38:09.664Z,53.13
2023-02-16T17:40:44.499Z,37.07
2023-02-16T17:43:20.159Z,36.87
2023-02-16T17:45:54.587Z,34.67
2023-02-16T17:48:29.182Z,32.47
2023-02-16T17:51:01.927Z,32.67
2023-02-16T17:53:34.804Z,28.47
2023-02-16T17:56:12.445Z,30.00
2023-02-16T17:58:45.309Z,28.27
2023-02-16T18:01:18.660Z,27.77
2023-02-16T18:03:52.302Z,28.37
2023-02-16T18:06:28.277Z,27.90
2023-02-16T18:09:01.909Z,28.47
2023-02-16T18:11:36.125Z,30.00
2023-02-16T18:14:09.566Z,26.20
2023-02-16T18:16:42.566Z,27.60
2023-02-16T18:19:15.780Z,24.30
2023-02-16T18:21:48.635Z,26.27
2023-02-16T18:24:21.551Z,25.30
2023-02-16T18:26:55.772Z,25.47
2023-02-16T18:29:30.343Z,24.40
2023-02-16T18:32:04.251Z,26.47
2023-02-16T18:34:37.502Z,29.40
2023-02-16T18:37:10.481Z,26.47
2023-02-16T18:39:43.494Z,24.17
2023-02-16T18:42:17.875Z,21.33
2023-02-16T18:44:52.588Z,22.73
2023-02-16T18:47:25.502Z,21.80
2023-02-16T18:49:58.239Z,26.67
2023-02-16T18:52:31.081Z,22.10
2023-02-16T18:55:03.816Z,23.10
2023-02-16T18:57:37.928Z,22.27
2023-02-16T19:00:11.985Z,22.37
2023-02-16T19:02:54.315Z,20.97
2023-02-16T19:05:27.242Z,26.53
2023-02-16T19:08:02.915Z,24.57
2023-02-16T19:10:35.629Z,22.13
2023-02-16T19:13:09.821Z,24.57
2023-02-16T19:15:42.913Z,22.97
2023-02-16T19:18:15.818Z,23.77
2023-02-16T19:20:48.522Z,23.33
2023-02-16T19:23:21.250Z,22.33
2023-02-16T19:25:54.071Z,26.03
2023-02-16T19:28:28.345Z,23.83
2023-02-16T19:31:02.316Z,25.03
2023-02-16T19:33:35.554Z,24.30
2023-02-16T19:36:09.933Z,24.60
2023-02-16T19:38:43.083Z,22.63
2023-02-16T19:41:17.313Z,25.33
2023-02-16T19:43:53.513Z,23.23
2023-02-16T19:46:29.298Z,22.17
2023-02-16T19:49:02.285Z,23.23
2023-02-16T19:51:35.140Z,20.90
2023-02-16T19:54:07.921Z,22.00
2023-02-16T19:56:41.560Z,21.80
2023-02-16T19:59:18.136Z,20.97
2023-02-16T20:01:51.683Z,22.67
2023-02-16T20:04:24.696Z,24.13
2023-02-16T20:06:57.598Z,21.77
2023-02-16T20:09:30.599Z,23.63
2023-02-16T20:12:03.368Z,19.50
2023-02-16T20:14:37.514Z,23.93
2023-02-16T20:17:13.092Z,24.77
2023-02-16T20:19:45.912Z,24.13
2023-02-16T20:22:18.710Z,25.13
2023-02-16T20:24:51.538Z,23.23
2023-02-16T20:27:24.342Z,21.47
2023-02-16T20:29:58.435Z,23.97
2023-02-16T20:32:31.172Z,23.80
2023-02-16T20:35:05.072Z,19.63
2023-02-16T20:37:37.797Z,22.43
2023-02-16T20:40:11.032Z,21.97
2023-02-16T20:42:46.317Z,24.20
2023-02-16T20:45:22.158Z,21.07
2023-02-16T20:47:55.077Z,22.97
2023-02-16T20:50:30.369Z,24.10
2023-02-16T20:53:03.066Z,23.57
2023-02-16T20:55:35.841Z,27.23
2023-02-16T20:58:08.659Z,25.10
2023-02-16T21:00:43.439Z,24.43
2023-02-16T21:03:22.059Z,23.53
2023-02-16T21:05:54.990Z,22.10
2023-02-16T21:08:27.842Z,23.20
2023-02-16T21:11:00.641Z,24.27
2023-02-16T21:13:33.491Z,25.23
2023-02-16T21:16:07.347Z,25.70
2023-02-16T21:18:41.939Z,25.40
2023-02-16T21:21:16.278Z,21.07
2023-02-16T21:23:49.894Z,23.30
2023-02-16T21:26:24.070Z,22.67
2023-02-16T21:28:56.922Z,25.57
2023-02-16T21:31:29.824Z,24.23
2023-02-16T21:34:03.975Z,21.10
2023-02-16T21:36:38.215Z,22.13
2023-02-16T21:39:10.924Z,24.77
2023-02-16T21:41:42.732Z,22.10
2023-02-16T21:44:16.537Z,25.07
2023-02-16T21:46:49.309Z,24.70
2023-02-16T21:49:22.440Z,24.23
2023-02-16T21:51:55.199Z,26.53
2023-02-16T21:54:41.819Z,24.23
2023-02-16T21:57:15.194Z,23.03
2023-02-16T21:59:48.161Z,23.90
2023-02-16T22:02:20.845Z,24.30
2023-02-16T22:04:54.941Z,19.97
2023-02-16T22:07:27.903Z,23.23
2023-02-16T22:10:00.768Z,23.60
2023-02-16T22:12:33.557Z,22.87
2023-02-16T22:15:06.514Z,26.17
2023-02-16T22:17:39.396Z,26.47
2023-02-16T22:20:13.916Z,23.03
2023-02-16T22:22:46.751Z,22.93
2023-02-16T22:25:19.590Z,22.67
2023-02-16T22:27:52.494Z,22.87
2023-02-16T22:30:25.303Z,24.47
2023-02-16T22:32:58.119Z,23.30
2023-02-16T22:35:32.279Z,22.37
2023-02-16T22:38:05.178Z,22.37
2023-02-16T22:40:38.029Z,24.87
2023-02-16T22:43:10.816Z,23.70
2023-02-16T22:45:43.609Z,24.50
2023-02-16T22:48:16.383Z,23.70
2023-02-16T22:50:58.952Z,27.27
2023-02-16T22:53:31.708Z,23.33
2023-02-16T22:56:08.032Z,22.53
2023-02-16T22:58:40.963Z,24.37
2023-02-16T23:01:15.214Z,25.70
2023-02-16T23:03:49.166Z,26.50
2023-02-16T23:06:24.420Z,24.33
2023-02-16T23:08:58.153Z,26.10
2023-02-16T23:11:31.086Z,27.87
2023-02-16T23:14:03.940Z,25.10
2023-02-16T23:16:39.757Z,27.57
2023-02-16T23:19:13.297Z,26.33
2023-02-16T23:21:47.976Z,23.70
2023-02-16T23:24:22.100Z,24.77
2023-02-16T23:26:55.467Z,27.30
2023-02-16T23:29:28.415Z,24.70
2023-02-16T23:32:01.274Z,25.73
2023-02-16T23:34:34.162Z,26.80
2023-02-16T23:37:08.266Z,25.83
2023-02-16T23:39:43.603Z,28.80
2023-02-16T23:42:16.536Z,27.87
2023-02-16T23:44:52.363Z,26.30
2023-02-16T23:47:25.142Z,27.40
2023-02-16T23:49:58.614Z,28.10
2023-02-16T23:52:32.656Z,29.33
2023-02-16T23:55:05.662Z,27.40
2023-02-16T23:57:38.471Z,26.70
